Weather at Mobile Downtown Airport

Public forecast

Using degrees Fahrenheit for public forecast. Weather courtesy of forecast.io.

Current aviation weather report (METAR) for Mobile Downtown Airport

Retrieved 2020/10/23 09:53 UTC (1 hour ago):

KBFM 230953Z 09011KT 10SM CLR 24/21 A3000 RMK AO2 SLP159 T02390211

Aviation forecast (TAF) for Mobile Downtown Airport

Retrieved 2020/10/23 06:22 UTC (5 hours ago):

TAF KBFM 230520Z 2306/2406 VRB03KT P6SM FEW060 FM231200 07005KT P6SM FEW030 FM231500 10006KT P6SM VCSH SCT030 FM232000 13006KT P6SM SCT080 PROB30 2320/2402 4SM TSRA OVC025CB